Time;durP1;ratioP1;P1;durP2;ratioP2;P2;SDS_P1;SDS_P2;PMS_P1;PMS_P2;Temp;Humidity;BMP_temperature;BMP_pressure;BME280_temperature;BME280_humidity;BME280_pressure;Samples;Min_cycle;Max_cycle;Signal;HPM_P1;HPM_P2
2023/01/24 00:02:03;;;;;;;13.73;10.87;;;;;;;2.09;97.24;97580.63;5112859;28;20244;-61
2023/01/24 00:04:30;;;;;;;15.10;11.80;;;;;;;2.04;97.89;97565.19;5114259;28;20543;-60
2023/01/24 00:06:56;;;;;;;14.23;11.53;;;;;;;2.06;98.00;97570.31;5113673;28;20198;-60
2023/01/24 00:09:23;;;;;;;15.20;11.50;;;;;;;2.16;97.37;97582.88;5113314;28;20209;-60
2023/01/24 00:11:49;;;;;;;13.87;11.23;;;;;;;2.14;97.40;97581.25;5113188;28;20299;-60
2023/01/24 00:14:16;;;;;;;15.00;11.97;;;;;;;2.05;97.37;97586.91;5113344;28;20204;-60
2023/01/24 00:16:43;;;;;;;14.50;11.43;;;;;;;2.08;97.48;97592.84;5113368;28;20235;-60
2023/01/24 00:19:10;;;;;;;15.37;11.30;;;;;;;2.14;97.01;97589.09;5113132;28;20617;-60
2023/01/24 00:21:36;;;;;;;14.73;11.77;;;;;;;2.13;97.15;97587.38;5114244;28;20208;-60
2023/01/24 00:24:03;;;;;;;13.60;11.23;;;;;;;2.10;97.22;97601.44;5124851;28;20196;-61
2023/01/24 00:26:30;;;;;;;15.23;11.63;;;;;;;2.05;97.51;97594.72;5126316;28;20201;-60
2023/01/24 00:28:57;;;;;;;14.90;11.50;;;;;;;2.05;97.98;97590.38;5124196;28;20628;-60
2023/01/24 00:31:24;;;;;;;16.23;11.63;;;;;;;2.07;97.52;97590.28;5131383;28;20197;-60
2023/01/24 00:33:52;;;;;;;16.17;12.47;;;;;;;2.06;97.64;97592.03;5137737;28;20196;-60
2023/01/24 00:36:19;;;;;;;15.97;11.47;;;;;;;2.07;97.85;97591.13;5134598;28;20253;-60
2023/01/24 00:38:45;;;;;;;14.43;11.10;;;;;;;2.07;97.39;97596.34;5132674;28;20242;-60
2023/01/24 00:41:12;;;;;;;14.03;11.13;;;;;;;2.09;97.29;97591.06;5112029;28;20201;-60
2023/01/24 00:43:38;;;;;;;14.20;11.97;;;;;;;2.08;97.12;97589.38;5112727;28;20211;-60
2023/01/24 00:46:06;;;;;;;13.60;10.83;;;;;;;2.08;97.60;97590.22;5112689;28;20517;-59
2023/01/24 00:48:33;;;;;;;15.97;11.37;;;;;;;2.09;97.62;97602.31;5113029;28;20214;-61
2023/01/24 00:51:01;;;;;;;15.10;11.43;;;;;;;2.10;97.72;97605.78;5112611;28;20208;-61
2023/01/24 00:53:27;;;;;;;14.53;11.10;;;;;;;2.09;96.93;97612.75;5113109;28;20208;-61
2023/01/24 00:55:54;;;;;;;13.63;11.53;;;;;;;2.17;96.94;97609.81;5111858;28;20640;-60
2023/01/24 00:58:21;;;;;;;13.30;11.27;;;;;;;2.13;96.84;97610.88;5112208;28;20248;-61
2023/01/24 01:00:48;;;;;;;14.20;11.77;;;;;;;2.07;97.03;97609.41;5111775;28;20201;-60
2023/01/24 01:03:16;;;;;;;15.23;11.47;;;;;;;2.05;97.24;97613.00;5112663;28;20213;-61
2023/01/24 01:05:43;;;;;;;15.33;11.60;;;;;;;2.01;97.53;97609.66;5112800;28;20573;-61
2023/01/24 01:08:11;;;;;;;13.67;10.87;;;;;;;2.08;97.23;97612.84;5112737;28;20196;-59
2023/01/24 01:10:38;;;;;;;15.60;11.00;;;;;;;2.06;97.29;97618.13;5112557;28;20253;-60
2023/01/24 01:13:05;;;;;;;14.83;11.83;;;;;;;2.04;97.59;97634.75;5112251;28;20200;-60
2023/01/24 01:15:32;;;;;;;12.47;10.70;;;;;;;2.07;97.64;97626.81;5113560;28;20209;-60
2023/01/24 01:17:59;;;;;;;13.10;10.23;;;;;;;2.05;97.55;97628.66;5115543;28;20220;-61
2023/01/24 01:20:26;;;;;;;13.33;10.63;;;;;;;2.10;97.65;97629.28;5116564;28;20205;-63
2023/01/24 01:22:53;;;;;;;12.10;10.80;;;;;;;2.04;97.53;97630.41;5114743;28;20254;-61
2023/01/24 01:25:21;;;;;;;13.17;10.93;;;;;;;2.10;97.45;97634.50;5113435;28;20231;-61
2023/01/24 01:27:47;;;;;;;14.47;10.43;;;;;;;2.16;97.31;97635.06;5112746;28;20207;-60
2023/01/24 01:30:14;;;;;;;12.00;10.17;;;;;;;2.09;97.74;97638.03;5112886;28;20203;-60
2023/01/24 01:32:40;;;;;;;14.80;11.13;;;;;;;2.11;97.42;97638.81;5112545;28;20205;-59
2023/01/24 01:35:07;;;;;;;14.30;10.63;;;;;;;2.09;97.53;97633.63;5112512;28;20208;-60
2023/01/24 01:37:34;;;;;;;11.37;10.13;;;;;;;2.05;97.46;97636.47;5110846;28;20715;-60
2023/01/24 01:40:01;;;;;;;11.83;9.57;;;;;;;2.11;97.14;97641.41;5112100;28;20214;-60
2023/01/24 01:42:38;;;;;;;13.60;10.63;;;;;;;2.07;97.57;97627.66;5112655;28;20213;-60
2023/01/24 01:45:34;;;;;;;14.30;11.13;;;;;;;2.11;96.77;97637.03;5111420;28;20515;-61
2023/01/24 01:48:01;;;;;;;13.30;10.00;;;;;;;2.18;96.60;97638.47;5112211;28;20186;-59
2023/01/24 01:50:31;;;;;;;12.50;9.30;;;;;;;2.14;96.39;97636.91;5111329;28;20933;-60
2023/01/24 01:52:58;;;;;;;12.13;9.83;;;;;;;2.18;96.61;97630.66;5111686;28;20207;-60
2023/01/24 01:55:26;;;;;;;12.20;9.80;;;;;;;2.12;96.98;97632.69;5111058;28;20208;-60
2023/01/24 01:57:55;;;;;;;12.90;10.43;;;;;;;2.18;96.64;97627.19;5111403;28;20217;-61
2023/01/24 02:00:24;;;;;;;11.30;9.83;;;;;;;2.19;96.47;97637.56;5111001;28;20209;-60
2023/01/24 02:03:37;;;;;;;11.10;9.57;;;;;;;2.21;97.03;97627.03;5111335;28;20267;-61
2023/01/24 02:05:42;;;;;;;11.93;9.33;;;;;;;2.17;96.37;97628.94;5111018;28;20529;-60
2023/01/24 02:08:12;;;;;;;12.53;9.87;;;;;;;2.16;96.67;97634.25;5110856;28;20201;-60
2023/01/24 02:13:20;;;;;;;12.47;10.30;;;;;;;2.13;96.97;97639.56;5109009;28;20307;-60
2023/01/24 02:16:03;;;;;;;12.47;10.10;;;;;;;2.14;95.88;97646.50;5111101;28;20219;-60
2023/01/24 02:18:30;;;;;;;11.47;9.70;;;;;;;2.11;96.09;97642.25;5111632;28;20212;-60
2023/01/24 02:20:57;;;;;;;11.10;9.90;;;;;;;2.14;96.04;97636.06;5111402;28;20569;-60
2023/01/24 02:23:29;;;;;;;13.40;10.27;;;;;;;2.12;96.26;97643.97;5113549;28;20212;-61
2023/01/24 02:26:15;;;;;;;12.97;9.93;;;;;;;2.16;96.33;97639.47;5118215;28;20212;-60
2023/01/24 02:28:46;;;;;;;10.37;8.77;;;;;;;2.19;96.28;97634.09;5117723;28;20192;-61
2023/01/24 02:31:12;;;;;;;12.93;9.83;;;;;;;2.17;96.28;97641.13;5117875;28;20220;-60
2023/01/24 02:33:39;;;;;;;12.47;9.90;;;;;;;2.17;96.01;97638.53;5118052;28;20208;-60
2023/01/24 02:36:16;;;;;;;11.00;9.83;;;;;;;2.12;96.62;97648.34;5118078;28;20208;-59
2023/01/24 02:38:45;;;;;;;10.93;9.30;;;;;;;2.13;95.99;97647.41;5117687;28;20238;-60
2023/01/24 02:41:12;;;;;;;13.10;9.83;;;;;;;2.18;96.06;97648.06;5116895;28;20513;-60
2023/01/24 02:43:43;;;;;;;11.40;9.67;;;;;;;2.18;95.74;97653.28;5117751;28;20215;-60
2023/01/24 02:46:10;;;;;;;10.47;9.00;;;;;;;2.16;95.36;97649.91;5117954;28;20656;-59
2023/01/24 02:48:36;;;;;;;12.60;9.20;;;;;;;2.18;95.34;97645.44;5117340;28;20197;-59
2023/01/24 02:53:47;;;;;;;10.37;8.70;;;;;;;2.12;94.89;97658.78;5117838;28;20207;-60
2023/01/24 02:58:59;;;;;;;9.17;8.13;;;;;;;2.08;95.23;97660.66;5118313;28;20282;-60
2023/01/24 03:01:26;;;;;;;10.07;8.27;;;;;;;2.11;95.18;97670.97;5119825;28;20229;-60
2023/01/24 03:03:53;;;;;;;11.50;8.93;;;;;;;2.09;94.86;97662.34;5120171;28;20205;-60
2023/01/24 03:06:19;;;;;;;9.77;8.37;;;;;;;2.13;94.51;97665.66;5120987;28;20204;-60
2023/01/24 03:08:46;;;;;;;9.50;7.50;;;;;;;2.17;94.76;97656.78;5117324;28;20524;-59
2023/01/24 03:11:14;;;;;;;8.77;7.83;;;;;;;2.17;94.75;97659.41;5117736;28;20292;-60
2023/01/24 03:35:36;;;;;;;10.07;8.47;;;;;;;2.24;93.79;97660.81;5117466;28;20204;-60
2023/01/24 03:40:52;;;;;;;10.13;8.23;;;;;;;2.31;93.82;97668.31;5115630;28;20693;-61
2023/01/24 03:43:18;;;;;;;10.57;8.40;;;;;;;2.25;93.75;97671.22;5115953;28;20617;-60
2023/01/24 03:45:45;;;;;;;9.53;8.33;;;;;;;2.25;93.45;97670.34;5118946;28;20246;-60
2023/01/24 03:48:16;;;;;;;10.63;8.63;;;;;;;2.19;93.29;97670.63;5123620;28;20223;-60
2023/01/24 03:53:29;;;;;;;11.63;8.70;;;;;;;2.18;93.59;97676.75;5120842;28;20204;-60
2023/01/24 03:55:57;;;;;;;10.37;9.27;;;;;;;2.12;93.25;97690.06;5113997;28;20219;-60
2023/01/24 03:58:24;;;;;;;11.87;8.60;;;;;;;2.17;93.42;97678.50;5113662;28;20220;-60
2023/01/24 04:00:52;;;;;;;12.07;9.63;;;;;;;2.21;93.27;97681.84;5113706;28;20268;-60
2023/01/24 04:03:20;;;;;;;10.83;9.10;;;;;;;2.26;93.07;97690.31;5114183;28;20196;-61
2023/01/24 04:05:47;;;;;;;11.70;9.07;;;;;;;2.19;93.40;97689.75;5113850;28;20213;-60
2023/01/24 04:08:13;;;;;;;9.83;8.60;;;;;;;2.22;93.62;97691.38;5114265;28;20201;-60
2023/01/24 04:10:40;;;;;;;10.37;8.90;;;;;;;2.23;93.30;97693.91;5113399;28;20205;-60
2023/01/24 04:13:06;;;;;;;10.03;8.97;;;;;;;2.25;93.25;97686.88;5113509;28;20220;-59
2023/01/24 04:15:33;;;;;;;11.00;8.77;;;;;;;2.27;93.47;97702.44;5113408;28;20526;-61
2023/01/24 04:18:01;;;;;;;10.37;8.83;;;;;;;2.31;93.61;97690.97;5112950;28;20225;-60
2023/01/24 04:20:31;;;;;;;9.77;8.53;;;;;;;2.32;94.39;97692.66;5113006;28;20235;-59
2023/01/24 04:23:01;;;;;;;10.03;8.30;;;;;;;2.30;94.47;97705.75;5113524;28;20536;-60
2023/01/24 04:25:27;;;;;;;11.77;8.77;;;;;;;2.23;94.85;97701.72;5112850;28;20659;-60
2023/01/24 04:27:53;;;;;;;9.43;8.43;;;;;;;2.26;95.34;97711.22;5113806;28;20523;-59
2023/01/24 04:30:20;;;;;;;11.17;9.07;;;;;;;2.31;94.46;97707.47;5113338;28;20209;-60
2023/01/24 04:32:47;;;;;;;9.90;8.53;;;;;;;2.26;94.92;97708.59;5112901;28;20209;-60
2023/01/24 04:35:17;;;;;;;9.60;8.53;;;;;;;2.33;94.96;97710.03;5112759;28;20533;-60
2023/01/24 04:37:45;;;;;;;11.87;9.00;;;;;;;2.31;95.36;97702.25;5113082;28;20216;-60
2023/01/24 04:40:12;;;;;;;11.00;9.07;;;;;;;2.35;95.18;97702.97;5112873;28;20204;-61
2023/01/24 04:42:39;;;;;;;9.50;8.47;;;;;;;2.36;95.02;97704.66;5112753;28;20706;-60
2023/01/24 04:45:07;;;;;;;9.73;8.57;;;;;;;2.32;95.34;97703.09;5113077;28;20224;-60
2023/01/24 04:47:33;;;;;;;10.30;9.20;;;;;;;2.31;95.52;97710.09;5112431;28;20205;-60
2023/01/24 04:50:00;;;;;;;10.00;8.50;;;;;;;2.24;95.43;97694.75;5113044;28;20204;-60
2023/01/24 04:52:26;;;;;;;10.73;9.53;;;;;;;2.23;95.50;97708.75;5112899;28;20205;-60
2023/01/24 04:54:54;;;;;;;11.30;9.43;;;;;;;2.21;95.87;97705.31;5112398;28;20201;-60
2023/01/24 04:57:21;;;;;;;9.77;8.50;;;;;;;2.29;95.53;97708.47;5112099;28;20201;-60
2023/01/24 04:59:47;;;;;;;10.50;9.07;;;;;;;2.32;95.92;97716.16;5112562;28;20227;-59
2023/01/24 05:02:14;;;;;;;10.83;9.27;;;;;;;2.32;96.07;97708.31;5112274;28;20235;-60
2023/01/24 05:04:42;;;;;;;10.10;8.73;;;;;;;2.36;95.90;97704.66;5112326;28;20220;-60
2023/01/24 05:07:08;;;;;;;9.77;8.77;;;;;;;2.40;95.33;97711.47;5112724;28;20209;-60
2023/01/24 05:09:35;;;;;;;11.13;8.93;;;;;;;2.41;95.27;97708.75;5112751;28;20537;-62
2023/01/24 05:12:02;;;;;;;10.73;9.57;;;;;;;2.34;95.33;97717.78;5112468;28;20205;-60
2023/01/24 05:14:29;;;;;;;11.40;9.70;;;;;;;2.35;95.22;97714.25;5112537;28;20219;-60
2023/01/24 05:16:56;;;;;;;14.63;11.03;;;;;;;2.38;94.39;97721.09;5112443;27;20220;-60
2023/01/24 05:19:22;;;;;;;12.57;10.40;;;;;;;2.37;94.08;97724.66;5112362;28;20231;-61
2023/01/24 05:21:49;;;;;;;11.77;9.93;;;;;;;2.30;94.08;97721.44;5112498;28;20196;-61
2023/01/24 05:24:15;;;;;;;11.10;9.90;;;;;;;2.35;94.12;97731.69;5111077;28;20223;-60
2023/01/24 05:26:41;;;;;;;12.73;9.53;;;;;;;2.38;93.99;97729.78;5112067;28;20201;-59
2023/01/24 05:29:09;;;;;;;9.87;8.87;;;;;;;2.41;94.30;97734.00;5111591;28;20192;-59
2023/01/24 05:31:36;;;;;;;10.40;9.30;;;;;;;2.39;94.04;97735.84;5111896;28;20215;-60
2023/01/24 05:34:04;;;;;;;10.37;9.30;;;;;;;2.42;93.04;97735.72;5111795;28;20215;-60
2023/01/24 05:36:31;;;;;;;10.97;9.47;;;;;;;2.41;93.82;97734.88;5112476;28;20289;-60
2023/01/24 05:38:58;;;;;;;10.57;8.67;;;;;;;2.31;93.88;97735.31;5111428;28;20770;-60
2023/01/24 05:41:24;;;;;;;10.40;9.30;;;;;;;2.39;93.67;97741.06;5111421;28;20212;-60
2023/01/24 05:43:51;;;;;;;10.70;9.37;;;;;;;2.41;93.64;97739.22;5110311;28;20220;-59
2023/01/24 05:46:20;;;;;;;10.37;9.13;;;;;;;2.44;93.00;97747.78;5112095;28;20219;-60
2023/01/24 05:48:47;;;;;;;10.93;9.67;;;;;;;2.41;92.93;97742.69;5111749;28;20294;-59
2023/01/24 05:51:15;;;;;;;10.87;9.43;;;;;;;2.39;93.12;97756.75;5112460;28;20205;-60
2023/01/24 05:53:42;;;;;;;10.67;9.57;;;;;;;2.36;93.49;97757.72;5115028;28;20529;-60
2023/01/24 05:56:12;;;;;;;11.73;10.00;;;;;;;2.31;93.12;97754.44;5116834;28;20230;-60
2023/01/24 05:58:39;;;;;;;11.77;9.87;;;;;;;2.34;93.34;97758.69;5118082;28;20259;-60
2023/01/24 06:01:07;;;;;;;11.33;9.03;;;;;;;2.38;93.10;97761.09;5121661;28;20225;-60
2023/01/24 06:03:37;;;;;;;11.07;9.17;;;;;;;2.40;93.29;97763.66;5123144;28;20218;-60
2023/01/24 06:06:03;;;;;;;12.73;10.03;;;;;;;2.45;93.48;97774.75;5123084;28;20208;-61
2023/01/24 06:08:30;;;;;;;11.03;9.83;;;;;;;2.42;93.17;97775.72;5117908;28;20206;-60
2023/01/24 06:11:02;;;;;;;10.43;9.43;;;;;;;2.51;93.13;97777.94;5110227;28;20222;-60
2023/01/24 06:13:29;;;;;;;10.87;9.23;;;;;;;2.50;93.19;97783.25;5111399;28;20212;-66
2023/01/24 06:16:01;;;;;;;10.50;9.47;;;;;;;2.52;93.36;97789.22;5122297;28;20209;-60
2023/01/24 06:18:28;;;;;;;11.60;10.27;;;;;;;2.48;93.32;97792.88;5118195;28;20209;-60
2023/01/24 06:20:56;;;;;;;12.33;9.67;;;;;;;2.48;93.13;97788.50;5125092;28;20224;-61
2023/01/24 06:23:25;;;;;;;9.90;8.83;;;;;;;2.56;93.46;97796.00;5113720;28;20219;-62
2023/01/24 06:25:52;;;;;;;10.47;9.17;;;;;;;2.71;95.94;97795.34;5111587;28;20212;-60
2023/01/24 06:28:19;;;;;;;10.97;9.13;;;;;;;2.73;94.85;97803.97;5110967;28;20629;-59
2023/01/24 06:30:47;;;;;;;11.07;9.20;;;;;;;2.72;93.77;97802.28;5110830;28;20201;-62
2023/01/24 06:33:25;;;;;;;10.23;8.90;;;;;;;2.71;93.06;97800.59;5110148;28;20193;-60
2023/01/24 06:36:10;;;;;;;11.80;9.30;;;;;;;2.69;93.31;97798.97;5110147;28;20287;-60
2023/01/24 06:38:37;;;;;;;10.50;8.97;;;;;;;2.58;92.88;97790.75;5110241;28;20326;-61
2023/01/24 06:41:04;;;;;;;10.40;9.30;;;;;;;2.58;93.07;97795.97;5110034;28;20213;-60
2023/01/24 06:43:31;;;;;;;10.47;9.37;;;;;;;2.64;92.68;97793.06;5110183;28;20208;-60
2023/01/24 06:45:58;;;;;;;10.90;9.20;;;;;;;2.60;92.60;97802.81;5111298;28;20211;-60
2023/01/24 06:48:24;;;;;;;10.40;9.10;;;;;;;2.63;92.77;97807.91;5110799;28;20207;-60
2023/01/24 06:50:51;;;;;;;11.37;9.00;;;;;;;2.62;93.48;97806.22;5111420;28;20227;-61
2023/01/24 06:53:19;;;;;;;10.53;9.20;;;;;;;2.64;92.83;97809.59;5092858;28;20539;-61
2023/01/24 06:55:46;;;;;;;10.70;9.17;;;;;;;2.59;93.71;97808.13;5110844;28;20209;-60
2023/01/24 06:58:14;;;;;;;11.33;9.53;;;;;;;2.61;93.27;97822.78;5111019;28;20217;-61
2023/01/24 07:00:40;;;;;;;12.20;10.20;;;;;;;2.53;93.16;97827.50;5110612;28;20618;-61
2023/01/24 07:03:08;;;;;;;11.47;9.47;;;;;;;2.43;93.12;97826.19;5111098;28;20197;-59
2023/01/24 07:05:36;;;;;;;11.23;9.00;;;;;;;2.48;92.81;97825.06;5111325;28;20637;-60
2023/01/24 07:08:03;;;;;;;10.80;9.20;;;;;;;2.49;93.87;97831.13;5111331;28;20204;-60
2023/01/24 07:10:30;;;;;;;12.47;9.10;;;;;;;2.48;93.19;97835.50;5113302;28;20201;-60
2023/01/24 07:12:57;;;;;;;10.50;9.40;;;;;;;2.42;93.53;97843.59;5114939;28;20849;-59
2023/01/24 07:15:23;;;;;;;11.57;9.73;;;;;;;2.44;93.26;97841.75;5114982;28;20219;-60
2023/01/24 07:17:50;;;;;;;11.17;9.73;;;;;;;2.43;93.25;97847.06;5115493;27;20205;-60
2023/01/24 07:20:18;;;;;;;12.43;9.70;;;;;;;2.48;93.93;97856.38;5114895;28;20236;-61
2023/01/24 07:22:45;;;;;;;10.80;9.20;;;;;;;2.50;94.18;97859.81;5114398;28;20823;-60
2023/01/24 07:25:14;;;;;;;10.57;9.40;;;;;;;2.50;93.62;97864.16;5114707;28;20209;-60
2023/01/24 07:27:43;;;;;;;11.63;9.87;;;;;;;2.47;94.26;97859.09;5114770;28;20216;-60
2023/01/24 07:30:11;;;;;;;12.10;10.23;;;;;;;2.46;93.15;97858.22;5114511;28;20224;-60
2023/01/24 07:32:38;;;;;;;12.13;10.43;;;;;;;2.40;92.81;97862.84;5114767;28;20338;-60
2023/01/24 07:35:06;;;;;;;10.50;9.40;;;;;;;2.40;92.67;97863.72;5114553;28;20197;-60
2023/01/24 07:37:33;;;;;;;12.00;9.73;;;;;;;2.41;92.91;97873.22;5114344;28;20656;-60
2023/01/24 07:39:59;;;;;;;10.77;9.47;;;;;;;2.41;93.05;97870.63;5113810;28;20241;-60
2023/01/24 07:42:26;;;;;;;11.23;9.77;;;;;;;2.40;92.58;97873.31;5114347;28;20193;-60
2023/01/24 07:44:56;;;;;;;10.33;9.23;;;;;;;2.37;92.27;97873.44;5115767;28;20618;-61
2023/01/24 07:47:23;;;;;;;11.50;9.40;;;;;;;2.45;92.64;97881.78;5115671;28;20209;-61
2023/01/24 07:49:49;;;;;;;10.83;9.73;;;;;;;2.47;92.35;97879.97;5114221;28;20216;-61
2023/01/24 07:52:15;;;;;;;10.67;9.57;;;;;;;2.44;91.69;97883.53;5114401;28;20215;-60
2023/01/24 07:54:42;;;;;;;10.87;9.07;;;;;;;2.49;92.03;97888.56;5114099;28;20204;-60
2023/01/24 07:57:08;;;;;;;11.10;9.40;;;;;;;2.53;92.01;97879.72;5114306;28;20205;-60
2023/01/24 07:59:35;;;;;;;10.73;9.27;;;;;;;2.49;91.69;97884.22;5115327;28;20229;-60
2023/01/24 08:02:03;;;;;;;12.00;9.77;;;;;;;2.55;91.54;97895.31;5118706;28;20244;-60
2023/01/24 08:04:29;;;;;;;10.87;9.57;;;;;;;2.57;91.49;97902.16;5119614;28;20522;-60
2023/01/24 08:09:40;;;;;;;10.50;9.40;;;;;;;2.55;91.69;97898.75;5113940;28;20203;-60
2023/01/24 08:12:07;;;;;;;11.03;9.40;;;;;;;2.58;91.72;97903.88;5114466;28;20232;-60
2023/01/24 08:14:33;;;;;;;10.60;9.50;;;;;;;2.59;90.99;97900.34;5114652;28;20205;-61
2023/01/24 08:16:59;;;;;;;11.70;9.30;;;;;;;2.59;90.71;97899.50;5113770;28;20193;-60
2023/01/24 08:19:27;;;;;;;10.23;9.13;;;;;;;2.53;90.66;97910.19;5114298;28;20567;-61
2023/01/24 08:21:54;;;;;;;13.70;10.37;;;;;;;2.54;90.64;97910.13;5115834;28;20200;-59
2023/01/24 08:24:20;;;;;;;11.80;9.67;;;;;;;2.59;91.34;97915.19;5116182;28;20197;-60
2023/01/24 08:26:48;;;;;;;12.13;9.73;;;;;;;2.55;91.13;97914.41;5118141;28;20208;-60
2023/01/24 08:29:15;;;;;;;10.00;9.00;;;;;;;2.53;90.64;97921.47;5117798;28;20714;-60
2023/01/24 08:31:42;;;;;;;12.30;9.87;;;;;;;2.52;90.29;97925.00;5117374;28;20204;-61
2023/01/24 08:34:09;;;;;;;10.40;9.10;;;;;;;2.62;90.88;97923.72;5120266;28;20201;-61
2023/01/24 08:36:37;;;;;;;11.67;9.90;;;;;;;2.62;90.80;97918.50;5127077;28;20193;-60
2023/01/24 08:39:04;;;;;;;11.87;9.23;;;;;;;2.65;91.32;97928.81;5127160;28;20201;-61
2023/01/24 08:41:32;;;;;;;11.70;9.73;;;;;;;2.70;90.31;97923.38;5122696;28;20205;-59
2023/01/24 08:44:02;;;;;;;11.20;10.00;;;;;;;2.75;90.42;97926.69;5125071;28;20200;-60
2023/01/24 08:46:28;;;;;;;11.03;9.63;;;;;;;2.73;88.95;97929.34;5125618;28;20210;-61
2023/01/24 08:48:55;;;;;;;9.73;8.77;;;;;;;2.64;89.24;97929.72;5120167;28;20212;-60
2023/01/24 08:51:21;;;;;;;10.37;9.30;;;;;;;2.72;88.71;97932.88;5112755;28;20878;-60
2023/01/24 08:53:49;;;;;;;10.63;9.23;;;;;;;2.62;88.65;97928.97;5118234;28;20205;-60
2023/01/24 08:56:16;;;;;;;11.53;9.43;;;;;;;2.64;88.69;97934.09;5117295;28;20733;-60
2023/01/24 08:58:42;;;;;;;15.97;9.93;;;;;;;2.73;89.19;97938.97;5118863;28;20250;-61
2023/01/24 09:01:09;;;;;;;10.57;9.47;;;;;;;2.73;89.84;97941.56;5113552;28;20680;-60
2023/01/24 09:03:36;;;;;;;10.80;9.70;;;;;;;2.74;88.68;97945.84;5112841;28;20339;-60
2023/01/24 09:06:03;;;;;;;11.43;10.03;;;;;;;2.67;87.73;97945.28;5113265;28;20200;-59
2023/01/24 09:08:30;;;;;;;13.00;9.83;;;;;;;2.71;88.48;97952.06;5112775;28;20208;-61
2023/01/24 09:10:59;;;;;;;12.80;9.67;;;;;;;2.75;88.23;97945.81;5112371;28;20201;-60
2023/01/24 09:13:26;;;;;;;15.80;10.17;;;;;;;2.78;87.36;97945.69;5114863;28;20208;-60
2023/01/24 09:15:53;;;;;;;13.53;9.73;;;;;;;2.82;87.75;97942.03;5116505;28;20193;-61
2023/01/24 09:18:19;;;;;;;11.33;9.43;;;;;;;2.81;87.49;97948.16;5121338;28;20204;-60
2023/01/24 09:20:46;;;;;;;12.30;10.07;;;;;;;2.85;87.78;97954.09;5125063;28;20235;-61
2023/01/24 09:23:14;;;;;;;12.10;9.60;;;;;;;2.87;87.87;97953.13;5114171;28;20219;-60
2023/01/24 09:25:41;;;;;;;10.63;9.53;;;;;;;2.88;87.18;97960.06;5111875;28;20693;-60
2023/01/24 09:28:08;;;;;;;10.83;9.63;;;;;;;2.88;86.99;97954.81;5111907;28;20207;-60
2023/01/24 09:30:35;;;;;;;11.93;9.67;;;;;;;2.85;86.81;97964.56;5112224;28;20204;-59
2023/01/24 09:33:03;;;;;;;11.57;9.63;;;;;;;2.85;87.18;97960.19;5111115;28;20205;-60
2023/01/24 09:35:30;;;;;;;14.17;10.53;;;;;;;2.83;86.64;97956.81;5112263;28;20193;-60
2023/01/24 09:37:57;;;;;;;14.10;10.60;;;;;;;2.92;86.55;97956.41;5112415;28;20219;-60
2023/01/24 09:40:26;;;;;;;14.20;10.30;;;;;;;2.90;86.87;97962.63;5111927;28;20252;-60
2023/01/24 09:42:59;;;;;;;12.70;9.77;;;;;;;2.92;86.42;97964.25;5112543;28;20223;-60
2023/01/24 09:45:30;;;;;;;10.73;9.30;;;;;;;2.86;86.32;97967.13;5111908;28;20197;-60
2023/01/24 09:47:59;;;;;;;12.50;9.20;;;;;;;2.89;86.38;97966.97;5111991;28;20196;-60
2023/01/24 09:50:28;;;;;;;12.57;10.13;;;;;;;2.84;86.08;97962.84;5111821;28;20201;-60
2023/01/24 09:52:56;;;;;;;12.47;9.10;;;;;;;2.96;86.29;97965.81;5112087;28;20562;-60
2023/01/24 09:55:25;;;;;;;12.07;10.13;;;;;;;3.01;86.23;97961.22;5111787;28;20204;-60
2023/01/24 09:57:56;;;;;;;17.87;10.17;;;;;;;3.01;85.60;97966.44;5111945;28;20209;-60
2023/01/24 10:00:26;;;;;;;10.97;9.03;;;;;;;3.03;85.54;97965.56;5111516;28;20205;-60
2023/01/24 10:02:56;;;;;;;11.00;9.40;;;;;;;2.99;85.79;97957.84;5111625;28;20897;-60
2023/01/24 10:05:26;;;;;;;12.63;9.23;;;;;;;3.00;85.79;97962.16;5111881;28;20235;-61
2023/01/24 10:08:11;;;;;;;12.30;9.20;;;;;;;2.87;85.41;97967.97;5112338;28;20597;-61
2023/01/24 10:10:45;;;;;;;18.87;10.40;;;;;;;2.80;85.67;97969.97;5111094;28;20846;-60
2023/01/24 10:13:25;;;;;;;15.57;9.90;;;;;;;2.85;86.23;97960.19;5111477;28;20617;-60
2023/01/24 10:15:59;;;;;;;12.53;9.63;;;;;;;2.85;85.70;97969.78;5111795;28;20201;-60
2023/01/24 10:18:36;;;;;;;13.10;10.40;;;;;;;2.91;85.94;97969.50;5112031;28;20197;-59
2023/01/24 10:21:37;;;;;;;10.87;9.20;;;;;;;2.89;85.02;97966.97;5111745;28;20528;-59
2023/01/24 10:24:06;;;;;;;10.17;9.17;;;;;;;2.91;85.78;97970.38;5111896;28;20201;-60
2023/01/24 10:26:38;;;;;;;15.43;10.03;;;;;;;2.94;85.83;97969.41;5111103;28;20202;-60
2023/01/24 10:29:12;;;;;;;16.67;10.67;;;;;;;2.99;85.73;97970.06;5111428;28;20208;-60
2023/01/24 10:31:41;;;;;;;14.40;10.87;;;;;;;3.07;85.19;97969.72;5112001;28;20204;-61
2023/01/24 10:34:12;;;;;;;11.20;9.53;;;;;;;3.01;84.57;97971.69;5111532;28;20193;-61
2023/01/24 10:36:43;;;;;;;10.83;8.83;;;;;;;3.10;85.19;97967.00;5111555;28;20518;-60
2023/01/24 10:39:10;;;;;;;12.33;9.40;;;;;;;3.17;85.14;97969.28;5110777;28;20204;-60
2023/01/24 10:41:37;;;;;;;10.67;8.90;;;;;;;3.08;84.86;97966.22;5111230;28;20271;-60
2023/01/24 10:44:09;;;;;;;11.13;8.97;;;;;;;3.04;85.70;97972.47;5111949;28;20220;-60
2023/01/24 10:47:00;;;;;;;12.57;9.90;;;;;;;3.11;85.23;97964.31;5117412;28;20192;-60
2023/01/24 10:49:29;;;;;;;13.53;9.90;;;;;;;3.19;85.18;97964.81;5115365;28;20212;-61
2023/01/24 10:52:12;;;;;;;11.07;9.17;;;;;;;3.12;84.30;97967.78;5115322;28;20193;-60
2023/01/24 10:54:44;;;;;;;11.23;9.70;;;;;;;3.11;84.04;97960.84;5112895;28;20283;-60
2023/01/24 10:57:32;;;;;;;12.23;9.90;;;;;;;3.07;85.27;97959.28;5115608;28;20208;-60
2023/01/24 11:00:05;;;;;;;11.80;9.53;;;;;;;3.13;84.95;97949.41;5114981;28;20287;-60
2023/01/24 11:02:33;;;;;;;10.97;9.70;;;;;;;3.11;85.41;97950.41;5114347;28;20232;-60
2023/01/24 11:05:03;;;;;;;13.13;9.77;;;;;;;3.06;84.95;97952.34;5114922;28;20235;-60
2023/01/24 11:07:33;;;;;;;11.17;9.57;;;;;;;3.00;85.74;97959.56;5114847;28;20629;-60
2023/01/24 11:10:01;;;;;;;15.10;9.90;;;;;;;3.03;86.07;97949.88;5114697;28;20213;-61
2023/01/24 11:12:28;;;;;;;9.70;8.70;;;;;;;3.03;85.08;97952.47;5116375;28;20263;-60
2023/01/24 11:14:54;;;;;;;12.70;9.60;;;;;;;3.06;86.01;97947.97;5116565;28;20193;-59
2023/01/24 11:17:33;;;;;;;11.50;9.37;;;;;;;3.05;86.57;97945.44;5117590;27;20215;-60
2023/01/24 11:20:03;;;;;;;11.53;9.60;;;;;;;3.06;86.41;97945.38;5118602;28;20205;-60
2023/01/24 11:22:34;;;;;;;14.33;9.93;;;;;;;3.08;86.38;97942.69;5118895;28;20194;-60
2023/01/24 11:25:03;;;;;;;11.10;9.90;;;;;;;3.04;85.81;97935.91;5119004;28;20227;-61
2023/01/24 11:27:31;;;;;;;12.57;9.67;;;;;;;3.10;86.58;97938.25;5122253;28;20201;-61
2023/01/24 11:30:06;;;;;;;14.03;9.90;;;;;;;3.15;87.12;97946.75;5121121;28;20205;-59
2023/01/24 11:32:41;;;;;;;11.43;9.60;;;;;;;3.18;86.82;97936.16;5116459;28;20192;-61
2023/01/24 11:35:12;;;;;;;11.37;9.50;;;;;;;3.17;85.72;97930.06;5114746;28;20621;-60
2023/01/24 11:38:07;;;;;;;11.03;9.93;;;;;;;3.18;86.54;97928.31;5114272;28;20500;-60
2023/01/24 11:40:40;;;;;;;11.33;9.70;;;;;;;3.14;87.07;97929.34;5113718;28;20213;-60
2023/01/24 11:43:16;;;;;;;13.97;10.43;;;;;;;3.10;86.33;97933.00;5114251;28;20530;-60
2023/01/24 11:46:09;;;;;;;12.80;10.10;;;;;;;3.15;86.67;97937.16;5114082;28;20528;-59
2023/01/24 11:48:38;;;;;;;14.80;9.77;;;;;;;3.15;87.13;97931.91;5100209;28;20625;-60
2023/01/24 11:51:10;;;;;;;13.13;10.57;;;;;;;3.17;87.59;97929.22;5114014;28;20197;-60
2023/01/24 11:53:45;;;;;;;11.83;10.10;;;;;;;3.08;87.23;97924.41;5113785;28;20630;-60
2023/01/24 11:56:21;;;;;;;12.07;9.53;;;;;;;3.16;87.51;97927.50;5112867;28;20517;-60
2023/01/24 11:59:15;;;;;;;12.60;9.60;;;;;;;3.12;88.77;97920.75;5113791;28;20201;-60
2023/01/24 12:01:49;;;;;;;10.70;9.57;;;;;;;3.22;88.79;97911.59;5113472;28;20229;-59
2023/01/24 12:04:36;;;;;;;10.27;8.87;;;;;;;3.32;89.18;97912.88;5114070;28;20204;-60
2023/01/24 12:07:08;;;;;;;13.07;8.73;;;;;;;3.25;88.40;97917.53;5110573;28;20246;-60
2023/01/24 12:09:37;;;;;;;13.13;9.00;;;;;;;3.29;89.17;97919.09;5113496;28;20202;-60
2023/01/24 12:12:09;;;;;;;10.83;8.60;;;;;;;3.28;89.30;97922.63;5113479;28;20638;-60
2023/01/24 12:14:53;;;;;;;12.13;9.13;;;;;;;3.12;89.44;97910.28;5113549;28;20193;-60
2023/01/24 12:17:33;;;;;;;9.43;8.43;;;;;;;3.27;89.24;97915.69;5113604;28;20637;-60
2023/01/24 12:20:12;;;;;;;9.73;8.73;;;;;;;3.28;89.94;97913.91;5113470;28;20204;-60